sensor_id;sensor_type;location;lat;lon;timestamp;P1;durP1;ratioP1;P2;durP2;ratioP2
11653;SDS011;5883;48.818;9.114;2022-12-29T00:00:13;9.35;;;3.30;;
11653;SDS011;5883;48.818;9.114;2022-12-29T00:02:39;5.03;;;3.03;;
11653;SDS011;5883;48.818;9.114;2022-12-29T00:05:06;4.30;;;2.60;;
11653;SDS011;5883;48.818;9.114;2022-12-29T00:07:33;4.43;;;2.50;;
11653;SDS011;5883;48.818;9.114;2022-12-29T00:09:59;4.50;;;2.65;;
11653;SDS011;5883;48.818;9.114;2022-12-29T00:12:25;3.10;;;1.90;;
11653;SDS011;5883;48.818;9.114;2022-12-29T00:15:14;4.93;;;2.00;;
11653;SDS011;5883;48.818;9.114;2022-12-29T00:17:58;4.78;;;2.00;;
11653;SDS011;5883;48.818;9.114;2022-12-29T00:20:24;4.05;;;1.90;;
11653;SDS011;5883;48.818;9.114;2022-12-29T00:23:08;3.17;;;1.70;;
11653;SDS011;5883;48.818;9.114;2022-12-29T00:25:52;2.03;;;1.55;;
11653;SDS011;5883;48.818;9.114;2022-12-29T00:28:36;3.58;;;1.50;;
11653;SDS011;5883;48.818;9.114;2022-12-29T00:31:21;1.40;;;1.30;;
11653;SDS011;5883;48.818;9.114;2022-12-29T00:34:07;2.65;;;1.65;;
11653;SDS011;5883;48.818;9.114;2022-12-29T00:36:51;1.83;;;1.50;;
11653;SDS011;5883;48.818;9.114;2022-12-29T00:39:17;2.22;;;1.65;;
11653;SDS011;5883;48.818;9.114;2022-12-29T00:42:05;4.13;;;1.80;;
11653;SDS011;5883;48.818;9.114;2022-12-29T00:44:49;1.77;;;1.52;;
11653;SDS011;5883;48.818;9.114;2022-12-29T00:47:17;5.85;;;1.80;;
11653;SDS011;5883;48.818;9.114;2022-12-29T00:49:43;5.38;;;2.15;;
11653;SDS011;5883;48.818;9.114;2022-12-29T00:52:09;3.25;;;1.50;;
11653;SDS011;5883;48.818;9.114;2022-12-29T00:54:36;3.90;;;1.50;;
11653;SDS011;5883;48.818;9.114;2022-12-29T00:57:03;1.50;;;1.40;;
11653;SDS011;5883;48.818;9.114;2022-12-29T00:59:30;2.42;;;1.50;;
11653;SDS011;5883;48.818;9.114;2022-12-29T01:01:57;2.03;;;1.38;;
11653;SDS011;5883;48.818;9.114;2022-12-29T01:04:25;1.73;;;1.50;;
11653;SDS011;5883;48.818;9.114;2022-12-29T01:06:52;2.03;;;1.48;;
11653;SDS011;5883;48.818;9.114;2022-12-29T01:09:18;2.05;;;1.30;;
11653;SDS011;5883;48.818;9.114;2022-12-29T01:12:03;2.42;;;1.30;;
11653;SDS011;5883;48.818;9.114;2022-12-29T01:14:29;2.78;;;1.58;;
11653;SDS011;5883;48.818;9.114;2022-12-29T01:16:56;2.65;;;1.70;;
11653;SDS011;5883;48.818;9.114;2022-12-29T01:19:24;3.20;;;1.67;;
11653;SDS011;5883;48.818;9.114;2022-12-29T01:21:51;3.58;;;1.27;;
11653;SDS011;5883;48.818;9.114;2022-12-29T01:24:18;1.75;;;1.30;;
11653;SDS011;5883;48.818;9.114;2022-12-29T01:26:45;1.65;;;1.23;;
11653;SDS011;5883;48.818;9.114;2022-12-29T01:29:12;2.25;;;1.50;;
11653;SDS011;5883;48.818;9.114;2022-12-29T01:31:38;2.35;;;1.25;;
11653;SDS011;5883;48.818;9.114;2022-12-29T01:34:05;1.77;;;1.63;;
11653;SDS011;5883;48.818;9.114;2022-12-29T01:36:33;5.53;;;1.30;;
11653;SDS011;5883;48.818;9.114;2022-12-29T01:38:59;2.40;;;1.50;;
11653;SDS011;5883;48.818;9.114;2022-12-29T01:41:26;2.22;;;1.38;;
11653;SDS011;5883;48.818;9.114;2022-12-29T01:43:53;2.03;;;1.45;;
11653;SDS011;5883;48.818;9.114;2022-12-29T01:46:23;1.95;;;1.35;;
11653;SDS011;5883;48.818;9.114;2022-12-29T01:48:51;2.17;;;1.30;;
11653;SDS011;5883;48.818;9.114;2022-12-29T01:51:19;2.67;;;1.30;;
11653;SDS011;5883;48.818;9.114;2022-12-29T01:53:47;1.88;;;1.38;;
11653;SDS011;5883;48.818;9.114;2022-12-29T01:56:14;2.83;;;1.30;;
11653;SDS011;5883;48.818;9.114;2022-12-29T01:58:43;2.83;;;1.30;;
11653;SDS011;5883;48.818;9.114;2022-12-29T02:01:11;1.60;;;1.33;;
11653;SDS011;5883;48.818;9.114;2022-12-29T02:03:37;4.47;;;1.33;;
11653;SDS011;5883;48.818;9.114;2022-12-29T02:06:05;3.47;;;1.25;;
11653;SDS011;5883;48.818;9.114;2022-12-29T02:08:34;2.47;;;1.23;;
11653;SDS011;5883;48.818;9.114;2022-12-29T02:11:02;1.60;;;1.45;;
11653;SDS011;5883;48.818;9.114;2022-12-29T02:13:30;1.30;;;1.20;;
11653;SDS011;5883;48.818;9.114;2022-12-29T02:16:00;2.20;;;1.13;;
11653;SDS011;5883;48.818;9.114;2022-12-29T02:18:32;1.40;;;1.30;;
11653;SDS011;5883;48.818;9.114;2022-12-29T02:21:11;2.22;;;1.73;;
11653;SDS011;5883;48.818;9.114;2022-12-29T02:24:01;1.17;;;1.02;;
11653;SDS011;5883;48.818;9.114;2022-12-29T02:26:41;2.83;;;1.40;;
11653;SDS011;5883;48.818;9.114;2022-12-29T02:29:16;1.80;;;1.17;;
11653;SDS011;5883;48.818;9.114;2022-12-29T02:31:49;2.55;;;1.30;;
11653;SDS011;5883;48.818;9.114;2022-12-29T02:34:20;1.30;;;1.20;;
11653;SDS011;5883;48.818;9.114;2022-12-29T02:36:50;1.50;;;1.35;;
11653;SDS011;5883;48.818;9.114;2022-12-29T02:39:21;1.92;;;1.40;;
11653;SDS011;5883;48.818;9.114;2022-12-29T02:41:52;5.22;;;1.30;;
11653;SDS011;5883;48.818;9.114;2022-12-29T02:44:22;3.90;;;1.50;;
11653;SDS011;5883;48.818;9.114;2022-12-29T02:46:53;2.60;;;1.40;;
11653;SDS011;5883;48.818;9.114;2022-12-29T02:49:22;2.58;;;1.25;;
11653;SDS011;5883;48.818;9.114;2022-12-29T02:51:53;3.53;;;1.58;;
11653;SDS011;5883;48.818;9.114;2022-12-29T02:54:22;1.85;;;1.48;;
11653;SDS011;5883;48.818;9.114;2022-12-29T02:57:08;1.88;;;1.20;;
11653;SDS011;5883;48.818;9.114;2022-12-29T02:59:35;2.75;;;1.27;;
11653;SDS011;5883;48.818;9.114;2022-12-29T03:02:07;4.25;;;1.30;;
11653;SDS011;5883;48.818;9.114;2022-12-29T03:05:04;2.25;;;1.30;;
11653;SDS011;5883;48.818;9.114;2022-12-29T03:07:33;1.30;;;1.20;;
11653;SDS011;5883;48.818;9.114;2022-12-29T03:10:01;2.33;;;1.30;;
11653;SDS011;5883;48.818;9.114;2022-12-29T03:12:31;4.10;;;1.20;;
11653;SDS011;5883;48.818;9.114;2022-12-29T03:15:20;3.95;;;1.20;;
11653;SDS011;5883;48.818;9.114;2022-12-29T03:18:09;2.58;;;1.20;;
11653;SDS011;5883;48.818;9.114;2022-12-29T03:20:36;2.53;;;1.25;;
11653;SDS011;5883;48.818;9.114;2022-12-29T03:23:04;3.38;;;1.20;;
11653;SDS011;5883;48.818;9.114;2022-12-29T03:25:30;4.93;;;1.30;;
11653;SDS011;5883;48.818;9.114;2022-12-29T03:27:58;1.95;;;1.42;;
11653;SDS011;5883;48.818;9.114;2022-12-29T03:30:26;2.50;;;1.20;;
11653;SDS011;5883;48.818;9.114;2022-12-29T03:32:54;3.38;;;1.10;;
11653;SDS011;5883;48.818;9.114;2022-12-29T03:35:23;5.22;;;1.50;;
11653;SDS011;5883;48.818;9.114;2022-12-29T03:37:52;2.03;;;1.50;;
11653;SDS011;5883;48.818;9.114;2022-12-29T03:40:21;1.10;;;0.90;;
11653;SDS011;5883;48.818;9.114;2022-12-29T03:42:49;1.63;;;1.20;;
11653;SDS011;5883;48.818;9.114;2022-12-29T03:45:16;2.05;;;1.17;;
11653;SDS011;5883;48.818;9.114;2022-12-29T03:47:42;2.00;;;1.50;;
11653;SDS011;5883;48.818;9.114;2022-12-29T03:50:11;2.80;;;1.40;;
11653;SDS011;5883;48.818;9.114;2022-12-29T03:52:38;1.85;;;1.30;;
11653;SDS011;5883;48.818;9.114;2022-12-29T03:55:05;2.53;;;1.50;;
11653;SDS011;5883;48.818;9.114;2022-12-29T03:57:31;3.85;;;1.42;;
11653;SDS011;5883;48.818;9.114;2022-12-29T03:59:58;1.95;;;1.67;;
11653;SDS011;5883;48.818;9.114;2022-12-29T04:02:24;1.30;;;1.10;;
11653;SDS011;5883;48.818;9.114;2022-12-29T04:04:50;3.47;;;1.17;;
11653;SDS011;5883;48.818;9.114;2022-12-29T04:07:17;2.78;;;1.30;;
11653;SDS011;5883;48.818;9.114;2022-12-29T04:09:45;1.50;;;1.10;;
11653;SDS011;5883;48.818;9.114;2022-12-29T04:12:11;1.60;;;1.15;;
11653;SDS011;5883;48.818;9.114;2022-12-29T04:14:38;1.92;;;1.23;;
11653;SDS011;5883;48.818;9.114;2022-12-29T04:17:04;4.93;;;1.38;;
11653;SDS011;5883;48.818;9.114;2022-12-29T04:19:31;2.95;;;1.25;;
11653;SDS011;5883;48.818;9.114;2022-12-29T04:21:57;2.30;;;1.48;;
11653;SDS011;5883;48.818;9.114;2022-12-29T04:24:24;1.70;;;1.35;;
11653;SDS011;5883;48.818;9.114;2022-12-29T04:26:51;2.88;;;1.30;;
11653;SDS011;5883;48.818;9.114;2022-12-29T04:29:18;2.05;;;1.30;;
11653;SDS011;5883;48.818;9.114;2022-12-29T04:31:44;2.33;;;1.55;;
11653;SDS011;5883;48.818;9.114;2022-12-29T04:34:11;3.88;;;1.33;;
11653;SDS011;5883;48.818;9.114;2022-12-29T04:36:37;2.15;;;1.48;;
11653;SDS011;5883;48.818;9.114;2022-12-29T04:39:04;2.00;;;1.40;;
11653;SDS011;5883;48.818;9.114;2022-12-29T04:41:31;1.83;;;1.42;;
11653;SDS011;5883;48.818;9.114;2022-12-29T04:43:59;5.68;;;1.20;;
11653;SDS011;5883;48.818;9.114;2022-12-29T04:46:25;1.40;;;1.30;;
11653;SDS011;5883;48.818;9.114;2022-12-29T04:48:52;1.38;;;1.27;;
11653;SDS011;5883;48.818;9.114;2022-12-29T04:51:18;3.83;;;1.50;;
11653;SDS011;5883;48.818;9.114;2022-12-29T04:53:44;3.42;;;1.30;;
11653;SDS011;5883;48.818;9.114;2022-12-29T04:56:11;1.60;;;1.42;;
11653;SDS011;5883;48.818;9.114;2022-12-29T04:58:37;2.97;;;1.65;;
11653;SDS011;5883;48.818;9.114;2022-12-29T05:01:05;2.97;;;2.15;;
11653;SDS011;5883;48.818;9.114;2022-12-29T05:03:31;1.50;;;1.40;;
11653;SDS011;5883;48.818;9.114;2022-12-29T05:05:58;3.78;;;1.30;;
11653;SDS011;5883;48.818;9.114;2022-12-29T05:08:24;1.80;;;1.50;;
11653;SDS011;5883;48.818;9.114;2022-12-29T05:10:51;3.88;;;1.60;;
11653;SDS011;5883;48.818;9.114;2022-12-29T05:13:17;3.30;;;1.70;;
11653;SDS011;5883;48.818;9.114;2022-12-29T05:15:46;1.75;;;1.40;;
11653;SDS011;5883;48.818;9.114;2022-12-29T05:18:14;1.75;;;1.48;;
11653;SDS011;5883;48.818;9.114;2022-12-29T05:20:41;2.47;;;1.50;;
11653;SDS011;5883;48.818;9.114;2022-12-29T05:23:07;1.80;;;1.60;;
11653;SDS011;5883;48.818;9.114;2022-12-29T05:25:34;2.03;;;1.60;;
11653;SDS011;5883;48.818;9.114;2022-12-29T05:28:00;2.85;;;1.67;;
11653;SDS011;5883;48.818;9.114;2022-12-29T05:30:26;3.15;;;1.65;;
11653;SDS011;5883;48.818;9.114;2022-12-29T05:32:53;2.85;;;1.50;;
11653;SDS011;5883;48.818;9.114;2022-12-29T05:35:20;1.58;;;1.48;;
11653;SDS011;5883;48.818;9.114;2022-12-29T05:37:47;4.53;;;1.77;;
11653;SDS011;5883;48.818;9.114;2022-12-29T05:40:13;4.15;;;1.70;;
11653;SDS011;5883;48.818;9.114;2022-12-29T05:42:40;2.65;;;1.50;;
11653;SDS011;5883;48.818;9.114;2022-12-29T05:45:07;1.70;;;1.60;;
11653;SDS011;5883;48.818;9.114;2022-12-29T05:47:33;2.17;;;1.60;;
11653;SDS011;5883;48.818;9.114;2022-12-29T05:50:00;3.17;;;1.38;;
11653;SDS011;5883;48.818;9.114;2022-12-29T05:52:28;3.72;;;1.60;;
11653;SDS011;5883;48.818;9.114;2022-12-29T05:54:54;2.42;;;1.60;;
11653;SDS011;5883;48.818;9.114;2022-12-29T05:57:21;2.65;;;1.50;;
11653;SDS011;5883;48.818;9.114;2022-12-29T05:59:47;1.73;;;1.40;;
11653;SDS011;5883;48.818;9.114;2022-12-29T06:02:13;1.38;;;1.27;;
11653;SDS011;5883;48.818;9.114;2022-12-29T06:04:40;1.80;;;1.65;;
11653;SDS011;5883;48.818;9.114;2022-12-29T06:07:06;2.75;;;1.40;;
11653;SDS011;5883;48.818;9.114;2022-12-29T06:09:34;1.35;;;1.25;;
11653;SDS011;5883;48.818;9.114;2022-12-29T06:12:00;2.00;;;1.50;;
11653;SDS011;5883;48.818;9.114;2022-12-29T06:14:26;2.28;;;1.50;;
11653;SDS011;5883;48.818;9.114;2022-12-29T06:16:53;2.45;;;1.40;;
11653;SDS011;5883;48.818;9.114;2022-12-29T06:19:19;2.88;;;1.50;;
11653;SDS011;5883;48.818;9.114;2022-12-29T06:21:46;2.53;;;1.50;;
11653;SDS011;5883;48.818;9.114;2022-12-29T06:24:12;1.50;;;1.27;;
11653;SDS011;5883;48.818;9.114;2022-12-29T06:26:40;3.30;;;1.50;;
11653;SDS011;5883;48.818;9.114;2022-12-29T06:29:07;2.28;;;1.63;;
11653;SDS011;5883;48.818;9.114;2022-12-29T06:31:34;1.65;;;1.55;;
11653;SDS011;5883;48.818;9.114;2022-12-29T06:34:00;4.47;;;1.70;;
11653;SDS011;5883;48.818;9.114;2022-12-29T06:36:27;2.58;;;1.50;;
11653;SDS011;5883;48.818;9.114;2022-12-29T06:38:54;4.32;;;1.88;;
11653;SDS011;5883;48.818;9.114;2022-12-29T06:41:20;4.03;;;1.52;;
11653;SDS011;5883;48.818;9.114;2022-12-29T06:43:48;2.63;;;1.50;;
11653;SDS011;5883;48.818;9.114;2022-12-29T06:46:14;2.50;;;1.75;;
11653;SDS011;5883;48.818;9.114;2022-12-29T06:48:41;3.55;;;1.75;;
11653;SDS011;5883;48.818;9.114;2022-12-29T06:51:08;2.15;;;1.40;;
11653;SDS011;5883;48.818;9.114;2022-12-29T06:53:34;3.15;;;2.25;;
11653;SDS011;5883;48.818;9.114;2022-12-29T06:56:01;2.55;;;1.58;;
11653;SDS011;5883;48.818;9.114;2022-12-29T06:58:27;4.05;;;1.70;;
11653;SDS011;5883;48.818;9.114;2022-12-29T07:00:55;2.38;;;1.50;;
11653;SDS011;5883;48.818;9.114;2022-12-29T07:03:21;2.55;;;1.83;;
11653;SDS011;5883;48.818;9.114;2022-12-29T07:05:48;3.95;;;1.95;;
11653;SDS011;5883;48.818;9.114;2022-12-29T07:08:14;4.10;;;1.65;;
11653;SDS011;5883;48.818;9.114;2022-12-29T07:10:40;1.90;;;1.40;;
11653;SDS011;5883;48.818;9.114;2022-12-29T07:13:07;1.88;;;1.40;;
11653;SDS011;5883;48.818;9.114;2022-12-29T07:15:33;1.58;;;1.40;;
11653;SDS011;5883;48.818;9.114;2022-12-29T07:18:01;2.85;;;1.70;;
11653;SDS011;5883;48.818;9.114;2022-12-29T07:20:28;1.88;;;1.60;;
11653;SDS011;5883;48.818;9.114;2022-12-29T07:22:55;2.10;;;1.67;;
11653;SDS011;5883;48.818;9.114;2022-12-29T07:25:21;3.33;;;1.58;;
11653;SDS011;5883;48.818;9.114;2022-12-29T07:27:47;1.95;;;1.70;;
11653;SDS011;5883;48.818;9.114;2022-12-29T07:30:14;3.40;;;2.00;;
11653;SDS011;5883;48.818;9.114;2022-12-29T07:32:41;2.03;;;1.50;;
11653;SDS011;5883;48.818;9.114;2022-12-29T07:35:08;5.18;;;1.77;;
11653;SDS011;5883;48.818;9.114;2022-12-29T07:37:35;2.55;;;1.80;;
11653;SDS011;5883;48.818;9.114;2022-12-29T07:40:01;3.33;;;1.70;;
11653;SDS011;5883;48.818;9.114;2022-12-29T07:42:29;2.78;;;1.33;;
11653;SDS011;5883;48.818;9.114;2022-12-29T07:44:55;3.25;;;1.75;;
11653;SDS011;5883;48.818;9.114;2022-12-29T07:47:21;2.92;;;1.80;;
11653;SDS011;5883;48.818;9.114;2022-12-29T07:49:48;2.65;;;1.77;;
11653;SDS011;5883;48.818;9.114;2022-12-29T07:52:16;4.10;;;2.30;;
11653;SDS011;5883;48.818;9.114;2022-12-29T07:54:42;4.18;;;1.75;;
11653;SDS011;5883;48.818;9.114;2022-12-29T07:57:09;2.60;;;1.50;;
11653;SDS011;5883;48.818;9.114;2022-12-29T07:59:35;3.70;;;1.80;;
11653;SDS011;5883;48.818;9.114;2022-12-29T08:02:01;6.85;;;1.60;;
11653;SDS011;5883;48.818;9.114;2022-12-29T08:04:28;2.25;;;1.40;;
11653;SDS011;5883;48.818;9.114;2022-12-29T08:06:54;1.60;;;1.50;;
11653;SDS011;5883;48.818;9.114;2022-12-29T08:09:22;1.83;;;1.30;;
11653;SDS011;5883;48.818;9.114;2022-12-29T08:11:51;2.05;;;1.58;;
11653;SDS011;5883;48.818;9.114;2022-12-29T08:14:17;1.77;;;1.30;;
11653;SDS011;5883;48.818;9.114;2022-12-29T08:16:44;1.70;;;1.50;;
11653;SDS011;5883;48.818;9.114;2022-12-29T08:19:11;2.55;;;1.73;;
11653;SDS011;5883;48.818;9.114;2022-12-29T08:21:38;4.45;;;1.70;;
11653;SDS011;5883;48.818;9.114;2022-12-29T08:24:05;2.53;;;1.40;;
11653;SDS011;5883;48.818;9.114;2022-12-29T08:26:33;2.03;;;1.50;;
11653;SDS011;5883;48.818;9.114;2022-12-29T08:28:59;3.58;;;1.58;;
11653;SDS011;5883;48.818;9.114;2022-12-29T08:31:26;4.10;;;1.50;;
11653;SDS011;5883;48.818;9.114;2022-12-29T08:33:52;2.05;;;1.55;;
11653;SDS011;5883;48.818;9.114;2022-12-29T08:36:18;3.22;;;1.52;;
11653;SDS011;5883;48.818;9.114;2022-12-29T08:38:45;1.83;;;1.50;;
11653;SDS011;5883;48.818;9.114;2022-12-29T08:41:11;1.50;;;1.27;;
11653;SDS011;5883;48.818;9.114;2022-12-29T08:43:39;3.00;;;1.60;;
11653;SDS011;5883;48.818;9.114;2022-12-29T08:46:06;1.58;;;1.48;;
11653;SDS011;5883;48.818;9.114;2022-12-29T08:48:32;1.50;;;1.40;;
11653;SDS011;5883;48.818;9.114;2022-12-29T08:50:59;3.45;;;1.67;;
11653;SDS011;5883;48.818;9.114;2022-12-29T08:53:25;3.38;;;1.50;;
11653;SDS011;5883;48.818;9.114;2022-12-29T08:55:55;1.98;;;1.63;;
11653;SDS011;5883;48.818;9.114;2022-12-29T08:58:21;2.40;;;1.67;;
11653;SDS011;5883;48.818;9.114;2022-12-29T09:00:51;1.83;;;1.40;;
11653;SDS011;5883;48.818;9.114;2022-12-29T09:03:17;2.33;;;1.33;;
11653;SDS011;5883;48.818;9.114;2022-12-29T09:05:46;1.77;;;1.50;;
11653;SDS011;5883;48.818;9.114;2022-12-29T09:08:13;1.80;;;1.60;;
11653;SDS011;5883;48.818;9.114;2022-12-29T09:10:39;4.55;;;1.40;;
11653;SDS011;5883;48.818;9.114;2022-12-29T09:13:06;1.40;;;1.30;;
11653;SDS011;5883;48.818;9.114;2022-12-29T09:15:32;4.40;;;1.50;;
11653;SDS011;5883;48.818;9.114;2022-12-29T09:18:00;2.95;;;1.38;;
11653;SDS011;5883;48.818;9.114;2022-12-29T09:20:26;1.63;;;1.50;;
11653;SDS011;5883;48.818;9.114;2022-12-29T09:22:53;1.73;;;1.50;;
11653;SDS011;5883;48.818;9.114;2022-12-29T09:25:19;4.20;;;1.60;;
11653;SDS011;5883;48.818;9.114;2022-12-29T09:27:48;2.88;;;1.58;;
11653;SDS011;5883;48.818;9.114;2022-12-29T09:30:15;4.28;;;1.60;;
11653;SDS011;5883;48.818;9.114;2022-12-29T09:32:41;1.83;;;1.45;;
11653;SDS011;5883;48.818;9.114;2022-12-29T09:35:10;2.10;;;1.52;;
11653;SDS011;5883;48.818;9.114;2022-12-29T09:37:36;3.45;;;1.40;;
11653;SDS011;5883;48.818;9.114;2022-12-29T09:40:03;1.75;;;1.45;;
11653;SDS011;5883;48.818;9.114;2022-12-29T09:42:32;2.45;;;1.35;;
11653;SDS011;5883;48.818;9.114;2022-12-29T09:45:04;3.20;;;1.60;;
11653;SDS011;5883;48.818;9.114;2022-12-29T09:47:34;2.00;;;1.50;;
11653;SDS011;5883;48.818;9.114;2022-12-29T09:50:02;3.63;;;1.30;;
11653;SDS011;5883;48.818;9.114;2022-12-29T09:52:32;1.60;;;1.20;;
11653;SDS011;5883;48.818;9.114;2022-12-29T09:55:00;3.53;;;1.20;;
11653;SDS011;5883;48.818;9.114;2022-12-29T09:57:29;3.45;;;1.40;;
11653;SDS011;5883;48.818;9.114;2022-12-29T09:59:59;4.13;;;1.60;;
11653;SDS011;5883;48.818;9.114;2022-12-29T10:02:31;3.20;;;1.58;;
11653;SDS011;5883;48.818;9.114;2022-12-29T10:04:58;2.30;;;1.42;;
11653;SDS011;5883;48.818;9.114;2022-12-29T10:07:26;3.47;;;1.70;;
11653;SDS011;5883;48.818;9.114;2022-12-29T10:09:59;2.88;;;1.55;;
11653;SDS011;5883;48.818;9.114;2022-12-29T10:12:29;2.40;;;1.30;;
11653;SDS011;5883;48.818;9.114;2022-12-29T10:15:02;3.85;;;1.50;;
11653;SDS011;5883;48.818;9.114;2022-12-29T10:17:32;2.92;;;1.48;;
11653;SDS011;5883;48.818;9.114;2022-12-29T10:20:03;3.40;;;1.30;;
11653;SDS011;5883;48.818;9.114;2022-12-29T10:22:34;1.98;;;1.50;;
11653;SDS011;5883;48.818;9.114;2022-12-29T10:25:17;3.00;;;1.52;;
11653;SDS011;5883;48.818;9.114;2022-12-29T10:27:46;2.90;;;1.73;;
11653;SDS011;5883;48.818;9.114;2022-12-29T10:30:13;2.35;;;1.40;;
11653;SDS011;5883;48.818;9.114;2022-12-29T10:32:40;3.33;;;1.40;;
11653;SDS011;5883;48.818;9.114;2022-12-29T10:35:10;1.40;;;1.30;;
11653;SDS011;5883;48.818;9.114;2022-12-29T10:37:39;3.83;;;1.40;;
11653;SDS011;5883;48.818;9.114;2022-12-29T10:40:15;1.98;;;1.40;;
11653;SDS011;5883;48.818;9.114;2022-12-29T10:42:44;3.92;;;1.60;;
11653;SDS011;5883;48.818;9.114;2022-12-29T10:45:12;2.63;;;1.50;;
11653;SDS011;5883;48.818;9.114;2022-12-29T10:47:41;4.00;;;1.70;;
11653;SDS011;5883;48.818;9.114;2022-12-29T10:50:11;1.77;;;1.10;;
11653;SDS011;5883;48.818;9.114;2022-12-29T10:52:38;1.20;;;1.10;;
11653;SDS011;5883;48.818;9.114;2022-12-29T10:55:07;1.63;;;1.10;;
11653;SDS011;5883;48.818;9.114;2022-12-29T10:57:36;1.60;;;1.40;;
11653;SDS011;5883;48.818;9.114;2022-12-29T11:00:09;1.58;;;1.35;;
11653;SDS011;5883;48.818;9.114;2022-12-29T11:02:53;2.95;;;1.33;;
11653;SDS011;5883;48.818;9.114;2022-12-29T11:05:23;3.50;;;1.30;;
11653;SDS011;5883;48.818;9.114;2022-12-29T11:07:53;3.63;;;1.25;;
11653;SDS011;5883;48.818;9.114;2022-12-29T11:10:29;3.58;;;1.27;;
11653;SDS011;5883;48.818;9.114;2022-12-29T11:13:00;2.05;;;1.40;;
11653;SDS011;5883;48.818;9.114;2022-12-29T11:15:27;3.60;;;1.55;;
11653;SDS011;5883;48.818;9.114;2022-12-29T11:17:55;1.35;;;1.20;;
11653;SDS011;5883;48.818;9.114;2022-12-29T11:20:30;3.60;;;1.70;;
11653;SDS011;5883;48.818;9.114;2022-12-29T11:22:57;3.85;;;1.33;;
11653;SDS011;5883;48.818;9.114;2022-12-29T11:25:23;2.72;;;1.30;;
11653;SDS011;5883;48.818;9.114;2022-12-29T11:27:58;1.48;;;1.38;;
11653;SDS011;5883;48.818;9.114;2022-12-29T11:30:26;1.83;;;1.50;;
11653;SDS011;5883;48.818;9.114;2022-12-29T11:32:54;1.77;;;1.38;;
11653;SDS011;5883;48.818;9.114;2022-12-29T11:35:29;5.82;;;1.85;;
11653;SDS011;5883;48.818;9.114;2022-12-29T11:37:56;3.17;;;1.20;;
11653;SDS011;5883;48.818;9.114;2022-12-29T11:40:23;2.75;;;1.10;;
11653;SDS011;5883;48.818;9.114;2022-12-29T11:42:50;2.13;;;1.25;;
11653;SDS011;5883;48.818;9.114;2022-12-29T11:45:19;2.45;;;1.35;;
11653;SDS011;5883;48.818;9.114;2022-12-29T11:47:47;1.23;;;1.00;;
11653;SDS011;5883;48.818;9.114;2022-12-29T11:50:16;1.40;;;1.20;;
11653;SDS011;5883;48.818;9.114;2022-12-29T11:52:43;1.90;;;1.10;;
11653;SDS011;5883;48.818;9.114;2022-12-29T11:55:16;1.85;;;1.30;;
11653;SDS011;5883;48.818;9.114;2022-12-29T11:57:43;3.28;;;1.30;;
11653;SDS011;5883;48.818;9.114;2022-12-29T12:00:14;3.08;;;1.38;;
11653;SDS011;5883;48.818;9.114;2022-12-29T12:02:43;1.90;;;1.58;;
11653;SDS011;5883;48.818;9.114;2022-12-29T12:05:15;1.63;;;1.35;;
11653;SDS011;5883;48.818;9.114;2022-12-29T12:07:44;3.15;;;1.70;;
11653;SDS011;5883;48.818;9.114;2022-12-29T12:10:16;3.80;;;1.35;;
11653;SDS011;5883;48.818;9.114;2022-12-29T12:12:45;1.77;;;1.50;;
11653;SDS011;5883;48.818;9.114;2022-12-29T12:15:15;2.45;;;1.58;;
11653;SDS011;5883;48.818;9.114;2022-12-29T12:17:46;2.28;;;1.48;;
11653;SDS011;5883;48.818;9.114;2022-12-29T12:20:16;2.55;;;1.80;;
11653;SDS011;5883;48.818;9.114;2022-12-29T12:22:45;2.42;;;1.75;;
11653;SDS011;5883;48.818;9.114;2022-12-29T12:25:16;1.92;;;1.42;;
11653;SDS011;5883;48.818;9.114;2022-12-29T12:27:46;4.32;;;1.85;;
11653;SDS011;5883;48.818;9.114;2022-12-29T12:30:15;2.40;;;1.55;;
11653;SDS011;5883;48.818;9.114;2022-12-29T12:32:44;2.47;;;1.48;;
11653;SDS011;5883;48.818;9.114;2022-12-29T12:35:14;1.83;;;1.50;;
11653;SDS011;5883;48.818;9.114;2022-12-29T12:43:08;1.55;;;1.23;;
11653;SDS011;5883;48.818;9.114;2022-12-29T12:45:40;5.32;;;1.50;;
11653;SDS011;5883;48.818;9.114;2022-12-29T12:48:13;2.75;;;1.63;;
11653;SDS011;5883;48.818;9.114;2022-12-29T12:50:47;2.33;;;1.42;;
11653;SDS011;5883;48.818;9.114;2022-12-29T12:53:19;1.75;;;1.40;;
11653;SDS011;5883;48.818;9.114;2022-12-29T12:55:54;3.10;;;1.50;;
11653;SDS011;5883;48.818;9.114;2022-12-29T12:58:26;2.30;;;1.60;;
11653;SDS011;5883;48.818;9.114;2022-12-29T13:00:59;1.85;;;1.42;;
11653;SDS011;5883;48.818;9.114;2022-12-29T13:03:34;2.10;;;1.58;;
11653;SDS011;5883;48.818;9.114;2022-12-29T13:06:07;2.42;;;1.67;;
11653;SDS011;5883;48.818;9.114;2022-12-29T13:08:41;2.58;;;1.63;;
11653;SDS011;5883;48.818;9.114;2022-12-29T13:11:13;3.85;;;1.60;;
11653;SDS011;5883;48.818;9.114;2022-12-29T13:13:47;2.90;;;1.83;;
11653;SDS011;5883;48.818;9.114;2022-12-29T13:16:20;1.77;;;1.67;;
11653;SDS011;5883;48.818;9.114;2022-12-29T13:18:50;4.55;;;1.73;;
11653;SDS011;5883;48.818;9.114;2022-12-29T13:21:25;4.03;;;1.80;;
11653;SDS011;5883;48.818;9.114;2022-12-29T13:23:54;2.33;;;1.45;;
11653;SDS011;5883;48.818;9.114;2022-12-29T13:26:24;2.17;;;1.40;;
11653;SDS011;5883;48.818;9.114;2022-12-29T13:28:54;2.75;;;1.20;;
11653;SDS011;5883;48.818;9.114;2022-12-29T13:31:25;2.10;;;1.45;;
11653;SDS011;5883;48.818;9.114;2022-12-29T13:33:53;5.28;;;1.70;;
11653;SDS011;5883;48.818;9.114;2022-12-29T13:36:25;2.22;;;1.25;;
11653;SDS011;5883;48.818;9.114;2022-12-29T13:38:55;4.00;;;1.52;;
11653;SDS011;5883;48.818;9.114;2022-12-29T13:41:26;1.70;;;1.50;;
11653;SDS011;5883;48.818;9.114;2022-12-29T13:43:53;2.05;;;1.50;;
11653;SDS011;5883;48.818;9.114;2022-12-29T13:46:21;2.13;;;1.48;;
11653;SDS011;5883;48.818;9.114;2022-12-29T13:48:51;2.35;;;1.60;;
11653;SDS011;5883;48.818;9.114;2022-12-29T13:51:18;1.38;;;1.17;;
11653;SDS011;5883;48.818;9.114;2022-12-29T13:53:54;2.17;;;1.27;;
11653;SDS011;5883;48.818;9.114;2022-12-29T13:56:22;2.80;;;1.65;;
11653;SDS011;5883;48.818;9.114;2022-12-29T13:58:52;2.53;;;1.30;;
11653;SDS011;5883;48.818;9.114;2022-12-29T14:01:20;1.98;;;1.50;;
11653;SDS011;5883;48.818;9.114;2022-12-29T14:03:49;2.42;;;1.65;;
11653;SDS011;5883;48.818;9.114;2022-12-29T14:06:20;2.95;;;1.90;;
11653;SDS011;5883;48.818;9.114;2022-12-29T14:08:48;1.70;;;1.50;;
11653;SDS011;5883;48.818;9.114;2022-12-29T14:11:16;1.40;;;1.20;;
11653;SDS011;5883;48.818;9.114;2022-12-29T14:13:44;1.70;;;1.60;;
11653;SDS011;5883;48.818;9.114;2022-12-29T14:16:23;2.25;;;1.52;;
11653;SDS011;5883;48.818;9.114;2022-12-29T14:18:50;1.92;;;1.65;;
11653;SDS011;5883;48.818;9.114;2022-12-29T14:21:19;1.98;;;1.70;;
11653;SDS011;5883;48.818;9.114;2022-12-29T14:23:48;1.48;;;1.38;;
11653;SDS011;5883;48.818;9.114;2022-12-29T14:26:18;3.72;;;1.50;;
11653;SDS011;5883;48.818;9.114;2022-12-29T14:29:15;2.35;;;1.70;;
11653;SDS011;5883;48.818;9.114;2022-12-29T14:31:41;2.58;;;1.40;;
11653;SDS011;5883;48.818;9.114;2022-12-29T14:34:15;2.20;;;1.55;;
11653;SDS011;5883;48.818;9.114;2022-12-29T14:36:42;1.58;;;1.38;;
11653;SDS011;5883;48.818;9.114;2022-12-29T14:41:57;4.25;;;1.80;;
11653;SDS011;5883;48.818;9.114;2022-12-29T14:44:25;2.05;;;1.48;;
11653;SDS011;5883;48.818;9.114;2022-12-29T14:46:55;3.03;;;1.70;;
11653;SDS011;5883;48.818;9.114;2022-12-29T14:49:23;2.13;;;1.48;;
11653;SDS011;5883;48.818;9.114;2022-12-29T14:51:50;1.80;;;1.60;;
11653;SDS011;5883;48.818;9.114;2022-12-29T14:54:41;2.15;;;1.60;;
11653;SDS011;5883;48.818;9.114;2022-12-29T14:57:11;1.80;;;1.70;;
11653;SDS011;5883;48.818;9.114;2022-12-29T14:59:40;3.10;;;1.42;;
11653;SDS011;5883;48.818;9.114;2022-12-29T15:02:12;3.47;;;1.90;;
11653;SDS011;5883;48.818;9.114;2022-12-29T15:04:40;2.72;;;1.42;;
11653;SDS011;5883;48.818;9.114;2022-12-29T15:07:07;3.38;;;1.65;;
11653;SDS011;5883;48.818;9.114;2022-12-29T15:09:35;2.85;;;1.65;;
11653;SDS011;5883;48.818;9.114;2022-12-29T15:12:04;2.90;;;2.00;;
11653;SDS011;5883;48.818;9.114;2022-12-29T15:14:36;1.85;;;1.55;;
11653;SDS011;5883;48.818;9.114;2022-12-29T15:17:08;2.78;;;1.80;;
11653;SDS011;5883;48.818;9.114;2022-12-29T15:19:35;2.20;;;2.00;;